sensor_id;sensor_type;location;lat;lon;timestamp;P1;durP1;ratioP1;P2;durP2;ratioP2
3249;SDS011;1637;42.020;23.992;2023-09-18T00:00:24;31.73;;;18.03;;
3249;SDS011;1637;42.020;23.992;2023-09-18T00:02:51;32.90;;;19.83;;
3249;SDS011;1637;42.020;23.992;2023-09-18T00:05:17;32.33;;;19.07;;
3249;SDS011;1637;42.020;23.992;2023-09-18T00:07:44;35.47;;;19.30;;
3249;SDS011;1637;42.020;23.992;2023-09-18T00:10:11;33.53;;;20.40;;
3249;SDS011;1637;42.020;23.992;2023-09-18T00:12:38;29.60;;;17.87;;
3249;SDS011;1637;42.020;23.992;2023-09-18T00:15:06;36.20;;;19.87;;
3249;SDS011;1637;42.020;23.992;2023-09-18T00:17:35;34.53;;;17.53;;
3249;SDS011;1637;42.020;23.992;2023-09-18T00:20:03;24.43;;;17.20;;
3249;SDS011;1637;42.020;23.992;2023-09-18T00:22:32;28.27;;;16.80;;
3249;SDS011;1637;42.020;23.992;2023-09-18T00:24:58;29.47;;;17.40;;
3249;SDS011;1637;42.020;23.992;2023-09-18T00:27:26;23.30;;;16.50;;
3249;SDS011;1637;42.020;23.992;2023-09-18T00:29:53;26.93;;;16.53;;
3249;SDS011;1637;42.020;23.992;2023-09-18T00:32:20;27.50;;;17.10;;
3249;SDS011;1637;42.020;23.992;2023-09-18T00:34:48;21.90;;;15.50;;
3249;SDS011;1637;42.020;23.992;2023-09-18T00:37:15;26.50;;;15.63;;
3249;SDS011;1637;42.020;23.992;2023-09-18T00:39:42;21.87;;;15.73;;
3249;SDS011;1637;42.020;23.992;2023-09-18T00:42:09;27.70;;;17.23;;
3249;SDS011;1637;42.020;23.992;2023-09-18T00:44:38;28.13;;;19.70;;
3249;SDS011;1637;42.020;23.992;2023-09-18T00:47:06;24.80;;;17.90;;
3249;SDS011;1637;42.020;23.992;2023-09-18T00:49:33;25.97;;;18.20;;
3249;SDS011;1637;42.020;23.992;2023-09-18T00:52:02;29.13;;;17.90;;
3249;SDS011;1637;42.020;23.992;2023-09-18T00:54:29;23.30;;;17.47;;
3249;SDS011;1637;42.020;23.992;2023-09-18T00:56:58;24.60;;;16.83;;
3249;SDS011;1637;42.020;23.992;2023-09-18T00:59:26;27.97;;;17.27;;
3249;SDS011;1637;42.020;23.992;2023-09-18T01:01:53;27.40;;;16.97;;
3249;SDS011;1637;42.020;23.992;2023-09-18T01:04:20;34.50;;;16.90;;
3249;SDS011;1637;42.020;23.992;2023-09-18T01:06:50;26.43;;;17.70;;
3249;SDS011;1637;42.020;23.992;2023-09-18T01:09:19;24.37;;;16.30;;
3249;SDS011;1637;42.020;23.992;2023-09-18T01:11:49;25.10;;;17.10;;
3249;SDS011;1637;42.020;23.992;2023-09-18T01:14:23;26.23;;;18.00;;
3249;SDS011;1637;42.020;23.992;2023-09-18T01:16:56;28.83;;;17.47;;
3249;SDS011;1637;42.020;23.992;2023-09-18T01:19:37;23.70;;;16.30;;
3249;SDS011;1637;42.020;23.992;2023-09-18T01:22:04;26.10;;;17.63;;
3249;SDS011;1637;42.020;23.992;2023-09-18T01:24:33;29.53;;;18.40;;
3249;SDS011;1637;42.020;23.992;2023-09-18T01:27:01;26.03;;;16.90;;
3249;SDS011;1637;42.020;23.992;2023-09-18T01:29:29;26.30;;;16.80;;
3249;SDS011;1637;42.020;23.992;2023-09-18T01:31:56;27.40;;;18.40;;
3249;SDS011;1637;42.020;23.992;2023-09-18T01:34:25;24.00;;;16.87;;
3249;SDS011;1637;42.020;23.992;2023-09-18T01:36:57;22.90;;;16.80;;
3249;SDS011;1637;42.020;23.992;2023-09-18T01:39:25;24.63;;;18.17;;
3249;SDS011;1637;42.020;23.992;2023-09-18T01:41:57;25.00;;;17.33;;
3249;SDS011;1637;42.020;23.992;2023-09-18T01:44:26;27.00;;;17.93;;
3249;SDS011;1637;42.020;23.992;2023-09-18T01:46:53;30.17;;;20.93;;
3249;SDS011;1637;42.020;23.992;2023-09-18T01:49:28;32.03;;;21.73;;
3249;SDS011;1637;42.020;23.992;2023-09-18T01:51:56;33.10;;;22.23;;
3249;SDS011;1637;42.020;23.992;2023-09-18T01:54:23;35.00;;;23.83;;
3249;SDS011;1637;42.020;23.992;2023-09-18T01:56:50;33.97;;;22.90;;
3249;SDS011;1637;42.020;23.992;2023-09-18T01:59:18;40.50;;;22.30;;
3249;SDS011;1637;42.020;23.992;2023-09-18T02:01:46;37.90;;;22.50;;
3249;SDS011;1637;42.020;23.992;2023-09-18T02:04:13;37.00;;;23.30;;
3249;SDS011;1637;42.020;23.992;2023-09-18T02:06:40;36.53;;;24.63;;
3249;SDS011;1637;42.020;23.992;2023-09-18T02:09:07;35.47;;;23.90;;
3249;SDS011;1637;42.020;23.992;2023-09-18T02:11:35;34.00;;;24.43;;
3249;SDS011;1637;42.020;23.992;2023-09-18T02:14:03;35.40;;;23.77;;
3249;SDS011;1637;42.020;23.992;2023-09-18T02:16:33;41.87;;;26.20;;
3249;SDS011;1637;42.020;23.992;2023-09-18T02:19:01;42.50;;;24.07;;
3249;SDS011;1637;42.020;23.992;2023-09-18T02:21:28;37.73;;;27.03;;
3249;SDS011;1637;42.020;23.992;2023-09-18T02:23:55;39.67;;;25.77;;
3249;SDS011;1637;42.020;23.992;2023-09-18T02:26:22;36.23;;;24.87;;
3249;SDS011;1637;42.020;23.992;2023-09-18T02:28:51;37.83;;;25.30;;
3249;SDS011;1637;42.020;23.992;2023-09-18T02:31:19;39.00;;;25.77;;
3249;SDS011;1637;42.020;23.992;2023-09-18T02:33:47;38.23;;;23.30;;
3249;SDS011;1637;42.020;23.992;2023-09-18T02:36:14;38.03;;;25.87;;
3249;SDS011;1637;42.020;23.992;2023-09-18T02:38:41;41.20;;;24.27;;
3249;SDS011;1637;42.020;23.992;2023-09-18T02:41:08;44.13;;;25.20;;
3249;SDS011;1637;42.020;23.992;2023-09-18T02:43:34;46.67;;;24.83;;
3249;SDS011;1637;42.020;23.992;2023-09-18T02:46:03;42.10;;;25.33;;
3249;SDS011;1637;42.020;23.992;2023-09-18T02:48:30;42.83;;;23.50;;
3249;SDS011;1637;42.020;23.992;2023-09-18T02:50:58;35.20;;;23.93;;
3249;SDS011;1637;42.020;23.992;2023-09-18T02:53:25;36.73;;;21.80;;
3249;SDS011;1637;42.020;23.992;2023-09-18T02:55:55;36.50;;;22.13;;
3249;SDS011;1637;42.020;23.992;2023-09-18T02:58:23;27.23;;;20.50;;
3249;SDS011;1637;42.020;23.992;2023-09-18T03:00:51;29.37;;;19.97;;
3249;SDS011;1637;42.020;23.992;2023-09-18T03:03:19;33.17;;;20.57;;
3249;SDS011;1637;42.020;23.992;2023-09-18T03:05:46;28.20;;;21.17;;
3249;SDS011;1637;42.020;23.992;2023-09-18T03:08:14;33.90;;;20.70;;
3249;SDS011;1637;42.020;23.992;2023-09-18T03:10:42;31.70;;;20.70;;
3249;SDS011;1637;42.020;23.992;2023-09-18T03:13:10;31.73;;;21.73;;
3249;SDS011;1637;42.020;23.992;2023-09-18T03:15:38;36.37;;;21.77;;
3249;SDS011;1637;42.020;23.992;2023-09-18T03:18:05;30.43;;;20.07;;
3249;SDS011;1637;42.020;23.992;2023-09-18T03:20:33;30.00;;;20.63;;
3249;SDS011;1637;42.020;23.992;2023-09-18T03:23:00;32.63;;;22.80;;
3249;SDS011;1637;42.020;23.992;2023-09-18T03:25:29;35.20;;;20.57;;
3249;SDS011;1637;42.020;23.992;2023-09-18T03:27:56;39.13;;;20.83;;
3249;SDS011;1637;42.020;23.992;2023-09-18T03:30:24;44.37;;;25.03;;
3249;SDS011;1637;42.020;23.992;2023-09-18T03:32:51;41.83;;;22.30;;
3249;SDS011;1637;42.020;23.992;2023-09-18T03:35:19;33.20;;;20.60;;
3249;SDS011;1637;42.020;23.992;2023-09-18T03:37:46;31.50;;;20.70;;
3249;SDS011;1637;42.020;23.992;2023-09-18T03:40:14;37.77;;;21.07;;
3249;SDS011;1637;42.020;23.992;2023-09-18T03:42:43;41.73;;;21.97;;
3249;SDS011;1637;42.020;23.992;2023-09-18T03:45:10;36.90;;;23.77;;
3249;SDS011;1637;42.020;23.992;2023-09-18T03:47:37;37.27;;;21.27;;
3249;SDS011;1637;42.020;23.992;2023-09-18T03:50:05;33.33;;;22.33;;
3249;SDS011;1637;42.020;23.992;2023-09-18T03:52:33;44.80;;;25.77;;
3249;SDS011;1637;42.020;23.992;2023-09-18T03:55:00;35.47;;;21.50;;
3249;SDS011;1637;42.020;23.992;2023-09-18T03:57:27;45.80;;;23.77;;
3249;SDS011;1637;42.020;23.992;2023-09-18T03:59:55;39.20;;;21.40;;
3249;SDS011;1637;42.020;23.992;2023-09-18T04:02:25;34.70;;;22.73;;
3249;SDS011;1637;42.020;23.992;2023-09-18T04:04:53;35.20;;;20.70;;
3249;SDS011;1637;42.020;23.992;2023-09-18T04:07:20;33.30;;;21.57;;
3249;SDS011;1637;42.020;23.992;2023-09-18T04:09:47;73.40;;;23.83;;
3249;SDS011;1637;42.020;23.992;2023-09-18T04:12:14;35.23;;;21.13;;
3249;SDS011;1637;42.020;23.992;2023-09-18T04:14:41;32.10;;;21.97;;
3249;SDS011;1637;42.020;23.992;2023-09-18T04:17:09;36.20;;;22.70;;
3249;SDS011;1637;42.020;23.992;2023-09-18T04:19:36;51.37;;;22.13;;
3249;SDS011;1637;42.020;23.992;2023-09-18T04:22:03;36.97;;;21.73;;
3249;SDS011;1637;42.020;23.992;2023-09-18T04:24:30;36.30;;;23.63;;
3249;SDS011;1637;42.020;23.992;2023-09-18T04:26:57;36.23;;;22.70;;
3249;SDS011;1637;42.020;23.992;2023-09-18T04:29:24;25.83;;;18.37;;
3249;SDS011;1637;42.020;23.992;2023-09-18T04:31:50;36.00;;;21.83;;
3249;SDS011;1637;42.020;23.992;2023-09-18T04:34:20;43.50;;;23.07;;
3249;SDS011;1637;42.020;23.992;2023-09-18T04:36:47;39.23;;;23.90;;
3249;SDS011;1637;42.020;23.992;2023-09-18T04:39:14;49.30;;;22.33;;
3249;SDS011;1637;42.020;23.992;2023-09-18T04:41:41;27.67;;;17.57;;
3249;SDS011;1637;42.020;23.992;2023-09-18T04:44:08;40.13;;;22.03;;
3249;SDS011;1637;42.020;23.992;2023-09-18T04:46:37;51.90;;;23.93;;
3249;SDS011;1637;42.020;23.992;2023-09-18T04:49:04;33.63;;;21.50;;
3249;SDS011;1637;42.020;23.992;2023-09-18T04:51:33;35.50;;;23.37;;
3249;SDS011;1637;42.020;23.992;2023-09-18T04:54:00;36.53;;;26.17;;
3249;SDS011;1637;42.020;23.992;2023-09-18T04:56:27;37.10;;;22.07;;
3249;SDS011;1637;42.020;23.992;2023-09-18T04:58:53;35.57;;;21.00;;
3249;SDS011;1637;42.020;23.992;2023-09-18T05:01:20;38.83;;;20.97;;
3249;SDS011;1637;42.020;23.992;2023-09-18T05:03:47;26.50;;;16.63;;
3249;SDS011;1637;42.020;23.992;2023-09-18T05:06:14;25.60;;;16.43;;
3249;SDS011;1637;42.020;23.992;2023-09-18T05:08:44;25.17;;;15.70;;
3249;SDS011;1637;42.020;23.992;2023-09-18T05:11:12;30.77;;;21.13;;
3249;SDS011;1637;42.020;23.992;2023-09-18T05:13:39;37.70;;;18.17;;
3249;SDS011;1637;42.020;23.992;2023-09-18T05:16:06;36.63;;;21.27;;
3249;SDS011;1637;42.020;23.992;2023-09-18T05:18:32;26.00;;;17.27;;
3249;SDS011;1637;42.020;23.992;2023-09-18T05:20:59;32.30;;;20.00;;
3249;SDS011;1637;42.020;23.992;2023-09-18T05:23:30;53.80;;;29.73;;
3249;SDS011;1637;42.020;23.992;2023-09-18T05:25:58;37.60;;;24.73;;
3249;SDS011;1637;42.020;23.992;2023-09-18T05:28:26;30.27;;;20.80;;
3249;SDS011;1637;42.020;23.992;2023-09-18T05:30:52;34.73;;;18.83;;
3249;SDS011;1637;42.020;23.992;2023-09-18T05:33:20;27.43;;;16.23;;
3249;SDS011;1637;42.020;23.992;2023-09-18T05:35:46;37.03;;;22.53;;
3249;SDS011;1637;42.020;23.992;2023-09-18T05:38:14;26.13;;;16.27;;
3249;SDS011;1637;42.020;23.992;2023-09-18T05:40:42;48.80;;;21.90;;
3249;SDS011;1637;42.020;23.992;2023-09-18T05:43:11;28.03;;;15.07;;
3249;SDS011;1637;42.020;23.992;2023-09-18T05:45:38;25.50;;;14.87;;
3249;SDS011;1637;42.020;23.992;2023-09-18T05:48:05;23.03;;;13.53;;
3249;SDS011;1637;42.020;23.992;2023-09-18T05:50:33;23.60;;;14.80;;
3249;SDS011;1637;42.020;23.992;2023-09-18T05:53:00;39.30;;;17.03;;
3249;SDS011;1637;42.020;23.992;2023-09-18T05:55:29;26.53;;;16.90;;
3249;SDS011;1637;42.020;23.992;2023-09-18T05:57:56;37.63;;;15.40;;
3249;SDS011;1637;42.020;23.992;2023-09-18T06:00:25;25.83;;;15.67;;
3249;SDS011;1637;42.020;23.992;2023-09-18T06:02:52;25.63;;;15.70;;
3249;SDS011;1637;42.020;23.992;2023-09-18T06:05:18;29.17;;;17.03;;
3249;SDS011;1637;42.020;23.992;2023-09-18T06:07:47;33.90;;;15.97;;
3249;SDS011;1637;42.020;23.992;2023-09-18T06:10:14;20.40;;;14.37;;
3249;SDS011;1637;42.020;23.992;2023-09-18T06:12:43;29.83;;;14.30;;
3249;SDS011;1637;42.020;23.992;2023-09-18T06:15:10;22.63;;;13.13;;
3249;SDS011;1637;42.020;23.992;2023-09-18T06:17:39;23.63;;;14.00;;
3249;SDS011;1637;42.020;23.992;2023-09-18T06:20:07;27.63;;;14.30;;
3249;SDS011;1637;42.020;23.992;2023-09-18T06:22:35;22.77;;;14.40;;
3249;SDS011;1637;42.020;23.992;2023-09-18T06:25:04;34.23;;;16.87;;
3249;SDS011;1637;42.020;23.992;2023-09-18T06:27:31;24.20;;;15.90;;
3249;SDS011;1637;42.020;23.992;2023-09-18T06:29:59;25.57;;;15.87;;
3249;SDS011;1637;42.020;23.992;2023-09-18T06:32:26;32.27;;;18.00;;
3249;SDS011;1637;42.020;23.992;2023-09-18T06:34:54;32.43;;;17.80;;
3249;SDS011;1637;42.020;23.992;2023-09-18T06:37:23;33.57;;;17.90;;
3249;SDS011;1637;42.020;23.992;2023-09-18T06:39:49;31.07;;;17.33;;
3249;SDS011;1637;42.020;23.992;2023-09-18T06:42:16;34.67;;;17.57;;
3249;SDS011;1637;42.020;23.992;2023-09-18T06:44:43;34.70;;;17.10;;
3249;SDS011;1637;42.020;23.992;2023-09-18T06:47:10;28.83;;;16.10;;
3249;SDS011;1637;42.020;23.992;2023-09-18T06:49:37;26.50;;;16.90;;
3249;SDS011;1637;42.020;23.992;2023-09-18T06:52:05;29.70;;;18.63;;
3249;SDS011;1637;42.020;23.992;2023-09-18T06:54:32;23.27;;;16.27;;
3249;SDS011;1637;42.020;23.992;2023-09-18T06:56:59;29.07;;;15.77;;
3249;SDS011;1637;42.020;23.992;2023-09-18T06:59:26;29.83;;;14.87;;
3249;SDS011;1637;42.020;23.992;2023-09-18T07:01:53;33.03;;;16.10;;
3249;SDS011;1637;42.020;23.992;2023-09-18T07:04:19;22.10;;;14.50;;
3249;SDS011;1637;42.020;23.992;2023-09-18T07:06:46;23.30;;;12.83;;
3249;SDS011;1637;42.020;23.992;2023-09-18T07:09:15;27.87;;;13.77;;
3249;SDS011;1637;42.020;23.992;2023-09-18T07:11:43;19.93;;;12.20;;
3249;SDS011;1637;42.020;23.992;2023-09-18T07:14:10;18.63;;;11.93;;
3249;SDS011;1637;42.020;23.992;2023-09-18T07:16:37;20.57;;;12.43;;
3249;SDS011;1637;42.020;23.992;2023-09-18T07:19:03;25.53;;;12.30;;
3249;SDS011;1637;42.020;23.992;2023-09-18T07:21:30;21.77;;;13.70;;
3249;SDS011;1637;42.020;23.992;2023-09-18T07:23:59;20.77;;;10.63;;
3249;SDS011;1637;42.020;23.992;2023-09-18T07:26:28;23.27;;;12.10;;
3249;SDS011;1637;42.020;23.992;2023-09-18T07:28:54;21.93;;;12.70;;
3249;SDS011;1637;42.020;23.992;2023-09-18T07:31:21;23.47;;;12.17;;
3249;SDS011;1637;42.020;23.992;2023-09-18T07:33:48;20.73;;;11.17;;
3249;SDS011;1637;42.020;23.992;2023-09-18T07:36:16;34.43;;;12.37;;
3249;SDS011;1637;42.020;23.992;2023-09-18T07:38:43;21.30;;;10.47;;
3249;SDS011;1637;42.020;23.992;2023-09-18T07:41:11;23.60;;;10.77;;
3249;SDS011;1637;42.020;23.992;2023-09-18T07:43:41;17.80;;;10.07;;
3249;SDS011;1637;42.020;23.992;2023-09-18T07:46:08;18.73;;;10.33;;
3249;SDS011;1637;42.020;23.992;2023-09-18T07:48:35;14.03;;;7.90;;
3249;SDS011;1637;42.020;23.992;2023-09-18T07:51:02;12.73;;;7.70;;
3249;SDS011;1637;42.020;23.992;2023-09-18T07:53:29;20.40;;;8.43;;
3249;SDS011;1637;42.020;23.992;2023-09-18T07:55:57;20.10;;;9.53;;
3249;SDS011;1637;42.020;23.992;2023-09-18T07:58:26;18.47;;;8.50;;
3249;SDS011;1637;42.020;23.992;2023-09-18T08:00:55;15.33;;;8.27;;
3249;SDS011;1637;42.020;23.992;2023-09-18T08:03:23;11.17;;;6.70;;
3249;SDS011;1637;42.020;23.992;2023-09-18T08:05:51;9.00;;;6.73;;
3249;SDS011;1637;42.020;23.992;2023-09-18T08:08:19;14.57;;;8.07;;
3249;SDS011;1637;42.020;23.992;2023-09-18T08:10:47;12.80;;;7.80;;
3249;SDS011;1637;42.020;23.992;2023-09-18T08:13:14;15.13;;;7.47;;
3249;SDS011;1637;42.020;23.992;2023-09-18T08:15:41;10.83;;;8.40;;
3249;SDS011;1637;42.020;23.992;2023-09-18T08:18:10;6.20;;;5.60;;
3249;SDS011;1637;42.020;23.992;2023-09-18T08:20:40;12.40;;;6.73;;
3249;SDS011;1637;42.020;23.992;2023-09-18T08:23:07;10.03;;;7.07;;
3249;SDS011;1637;42.020;23.992;2023-09-18T08:25:34;11.37;;;7.10;;
3249;SDS011;1637;42.020;23.992;2023-09-18T08:28:02;9.67;;;7.30;;
3249;SDS011;1637;42.020;23.992;2023-09-18T08:30:29;12.80;;;6.53;;
3249;SDS011;1637;42.020;23.992;2023-09-18T08:32:56;10.00;;;6.70;;
3249;SDS011;1637;42.020;23.992;2023-09-18T08:35:24;10.80;;;6.87;;
3249;SDS011;1637;42.020;23.992;2023-09-18T08:37:54;10.60;;;6.93;;
3249;SDS011;1637;42.020;23.992;2023-09-18T08:40:22;9.80;;;6.23;;
3249;SDS011;1637;42.020;23.992;2023-09-18T08:42:51;6.77;;;5.67;;
3249;SDS011;1637;42.020;23.992;2023-09-18T08:45:22;16.07;;;6.73;;
3249;SDS011;1637;42.020;23.992;2023-09-18T08:47:52;13.87;;;9.47;;
3249;SDS011;1637;42.020;23.992;2023-09-18T08:50:20;11.30;;;6.53;;
3249;SDS011;1637;42.020;23.992;2023-09-18T08:52:49;7.93;;;5.70;;
3249;SDS011;1637;42.020;23.992;2023-09-18T08:55:16;11.87;;;5.47;;
3249;SDS011;1637;42.020;23.992;2023-09-18T08:57:44;10.27;;;5.07;;
3249;SDS011;1637;42.020;23.992;2023-09-18T09:00:12;21.97;;;12.83;;
3249;SDS011;1637;42.020;23.992;2023-09-18T09:02:42;11.30;;;4.30;;
3249;SDS011;1637;42.020;23.992;2023-09-18T09:05:09;9.07;;;3.43;;
3249;SDS011;1637;42.020;23.992;2023-09-18T09:07:36;6.40;;;4.30;;
3249;SDS011;1637;42.020;23.992;2023-09-18T09:10:05;6.00;;;4.80;;
3249;SDS011;1637;42.020;23.992;2023-09-18T09:12:54;7.30;;;4.93;;
3249;SDS011;1637;42.020;23.992;2023-09-18T09:15:22;11.70;;;4.77;;
3249;SDS011;1637;42.020;23.992;2023-09-18T09:17:51;7.30;;;4.53;;
3249;SDS011;1637;42.020;23.992;2023-09-18T09:20:27;11.23;;;3.67;;
3249;SDS011;1637;42.020;23.992;2023-09-18T09:22:55;5.73;;;4.10;;
3249;SDS011;1637;42.020;23.992;2023-09-18T09:25:28;6.77;;;4.13;;
3249;SDS011;1637;42.020;23.992;2023-09-18T09:27:58;4.17;;;3.53;;
3249;SDS011;1637;42.020;23.992;2023-09-18T09:30:26;5.30;;;3.77;;
3249;SDS011;1637;42.020;23.992;2023-09-18T09:32:55;5.40;;;2.93;;
3249;SDS011;1637;42.020;23.992;2023-09-18T09:35:23;4.47;;;3.30;;
3249;SDS011;1637;42.020;23.992;2023-09-18T09:37:54;6.50;;;4.00;;
3249;SDS011;1637;42.020;23.992;2023-09-18T09:40:24;6.50;;;3.80;;
3249;SDS011;1637;42.020;23.992;2023-09-18T09:42:53;4.57;;;3.27;;
3249;SDS011;1637;42.020;23.992;2023-09-18T09:45:26;10.67;;;4.80;;
3249;SDS011;1637;42.020;23.992;2023-09-18T09:47:55;4.87;;;3.53;;
3249;SDS011;1637;42.020;23.992;2023-09-18T09:50:23;8.60;;;5.00;;
3249;SDS011;1637;42.020;23.992;2023-09-18T09:52:52;9.17;;;3.83;;
3249;SDS011;1637;42.020;23.992;2023-09-18T09:55:21;5.23;;;3.77;;
3249;SDS011;1637;42.020;23.992;2023-09-18T09:57:51;10.00;;;5.00;;
3249;SDS011;1637;42.020;23.992;2023-09-18T10:00:22;15.90;;;5.20;;
3249;SDS011;1637;42.020;23.992;2023-09-18T10:02:59;7.97;;;4.20;;
3249;SDS011;1637;42.020;23.992;2023-09-18T10:05:28;8.80;;;4.07;;
3249;SDS011;1637;42.020;23.992;2023-09-18T10:07:58;4.50;;;4.10;;
3249;SDS011;1637;42.020;23.992;2023-09-18T10:10:31;6.60;;;3.40;;
3249;SDS011;1637;42.020;23.992;2023-09-18T10:13:04;7.27;;;3.63;;
3249;SDS011;1637;42.020;23.992;2023-09-18T10:15:36;6.23;;;3.47;;
3249;SDS011;1637;42.020;23.992;2023-09-18T10:18:05;12.27;;;4.20;;
3249;SDS011;1637;42.020;23.992;2023-09-18T10:20:39;6.13;;;3.80;;
3249;SDS011;1637;42.020;23.992;2023-09-18T10:23:12;5.97;;;3.70;;
3249;SDS011;1637;42.020;23.992;2023-09-18T10:25:48;8.53;;;3.40;;
3249;SDS011;1637;42.020;23.992;2023-09-18T10:28:21;5.37;;;3.70;;
3249;SDS011;1637;42.020;23.992;2023-09-18T10:30:51;5.33;;;4.47;;
3249;SDS011;1637;42.020;23.992;2023-09-18T10:33:19;4.10;;;3.70;;
3249;SDS011;1637;42.020;23.992;2023-09-18T10:35:46;8.20;;;4.57;;
3249;SDS011;1637;42.020;23.992;2023-09-18T10:38:15;9.77;;;5.17;;
3249;SDS011;1637;42.020;23.992;2023-09-18T10:40:43;12.40;;;5.10;;
3249;SDS011;1637;42.020;23.992;2023-09-18T10:43:10;24.90;;;17.17;;
3249;SDS011;1637;42.020;23.992;2023-09-18T10:45:39;14.57;;;8.00;;
3249;SDS011;1637;42.020;23.992;2023-09-18T10:48:06;11.70;;;9.10;;
3249;SDS011;1637;42.020;23.992;2023-09-18T10:50:35;4.23;;;3.60;;
3249;SDS011;1637;42.020;23.992;2023-09-18T10:53:04;12.57;;;7.00;;
3249;SDS011;1637;42.020;23.992;2023-09-18T10:55:31;6.63;;;4.70;;
3249;SDS011;1637;42.020;23.992;2023-09-18T10:57:59;5.40;;;3.50;;
3249;SDS011;1637;42.020;23.992;2023-09-18T11:00:28;8.87;;;5.27;;
3249;SDS011;1637;42.020;23.992;2023-09-18T11:03:10;13.80;;;4.60;;
3249;SDS011;1637;42.020;23.992;2023-09-18T11:05:37;8.70;;;4.93;;
3249;SDS011;1637;42.020;23.992;2023-09-18T11:11:01;10.30;;;5.47;;
3249;SDS011;1637;42.020;23.992;2023-09-18T11:13:39;6.33;;;3.40;;
3249;SDS011;1637;42.020;23.992;2023-09-18T11:16:16;7.20;;;4.70;;
3249;SDS011;1637;42.020;23.992;2023-09-18T11:18:51;6.53;;;3.93;;
3249;SDS011;1637;42.020;23.992;2023-09-18T11:21:23;8.93;;;5.30;;
3249;SDS011;1637;42.020;23.992;2023-09-18T11:23:57;7.43;;;4.17;;
3249;SDS011;1637;42.020;23.992;2023-09-18T11:26:28;5.20;;;3.53;;
3249;SDS011;1637;42.020;23.992;2023-09-18T11:28:56;4.77;;;3.30;;
3249;SDS011;1637;42.020;23.992;2023-09-18T11:34:12;3.80;;;2.93;;
3249;SDS011;1637;42.020;23.992;2023-09-18T11:36:45;5.20;;;3.70;;
3249;SDS011;1637;42.020;23.992;2023-09-18T11:39:12;6.17;;;3.57;;
3249;SDS011;1637;42.020;23.992;2023-09-18T11:41:39;7.63;;;3.50;;
3249;SDS011;1637;42.020;23.992;2023-09-18T11:47:01;6.07;;;2.70;;
3249;SDS011;1637;42.020;23.992;2023-09-18T11:49:30;12.47;;;3.97;;
3249;SDS011;1637;42.020;23.992;2023-09-18T11:51:58;6.30;;;3.60;;
3249;SDS011;1637;42.020;23.992;2023-09-18T11:54:27;6.07;;;2.90;;
3249;SDS011;1637;42.020;23.992;2023-09-18T11:56:54;8.90;;;3.93;;
3249;SDS011;1637;42.020;23.992;2023-09-18T11:59:33;3.23;;;2.63;;
3249;SDS011;1637;42.020;23.992;2023-09-18T12:02:01;4.97;;;3.00;;
3249;SDS011;1637;42.020;23.992;2023-09-18T12:04:32;3.67;;;2.93;;
3249;SDS011;1637;42.020;23.992;2023-09-18T12:06:59;7.50;;;4.00;;
3249;SDS011;1637;42.020;23.992;2023-09-18T12:09:28;23.33;;;16.50;;
3249;SDS011;1637;42.020;23.992;2023-09-18T12:11:55;15.60;;;6.50;;
3249;SDS011;1637;42.020;23.992;2023-09-18T12:14:23;7.43;;;3.80;;
3249;SDS011;1637;42.020;23.992;2023-09-18T12:16:50;3.80;;;3.50;;
3249;SDS011;1637;42.020;23.992;2023-09-18T12:19:17;5.70;;;4.63;;
3249;SDS011;1637;42.020;23.992;2023-09-18T12:21:46;5.30;;;4.30;;
3249;SDS011;1637;42.020;23.992;2023-09-18T12:24:14;4.30;;;3.43;;
3249;SDS011;1637;42.020;23.992;2023-09-18T12:26:41;5.60;;;3.77;;
3249;SDS011;1637;42.020;23.992;2023-09-18T12:29:08;8.00;;;4.10;;
3249;SDS011;1637;42.020;23.992;2023-09-18T12:31:37;13.10;;;5.53;;
3249;SDS011;1637;42.020;23.992;2023-09-18T12:34:04;19.70;;;11.97;;
3249;SDS011;1637;42.020;23.992;2023-09-18T12:36:32;38.53;;;26.83;;
3249;SDS011;1637;42.020;23.992;2023-09-18T12:39:01;22.63;;;13.20;;
3249;SDS011;1637;42.020;23.992;2023-09-18T12:41:29;43.00;;;26.87;;
3249;SDS011;1637;42.020;23.992;2023-09-18T12:43:57;71.73;;;38.50;;
3249;SDS011;1637;42.020;23.992;2023-09-18T12:46:24;51.07;;;30.33;;
3249;SDS011;1637;42.020;23.992;2023-09-18T12:48:51;8.37;;;5.97;;
3249;SDS011;1637;42.020;23.992;2023-09-18T12:51:18;11.63;;;4.33;;
3249;SDS011;1637;42.020;23.992;2023-09-18T12:53:47;7.30;;;4.10;;
3249;SDS011;1637;42.020;23.992;2023-09-18T12:56:26;5.40;;;4.40;;
3249;SDS011;1637;42.020;23.992;2023-09-18T12:58:56;11.90;;;7.07;;
3249;SDS011;1637;42.020;23.992;2023-09-18T13:01:23;6.33;;;3.80;;
3249;SDS011;1637;42.020;23.992;2023-09-18T13:03:52;17.30;;;5.17;;
3249;SDS011;1637;42.020;23.992;2023-09-18T13:06:20;6.20;;;3.90;;
3249;SDS011;1637;42.020;23.992;2023-09-18T13:08:47;5.60;;;3.80;;
3249;SDS011;1637;42.020;23.992;2023-09-18T13:11:18;6.10;;;4.70;;
3249;SDS011;1637;42.020;23.992;2023-09-18T13:13:46;7.70;;;4.07;;
3249;SDS011;1637;42.020;23.992;2023-09-18T13:16:23;5.67;;;3.20;;
3249;SDS011;1637;42.020;23.992;2023-09-18T13:18:50;3.43;;;2.93;;
3249;SDS011;1637;42.020;23.992;2023-09-18T13:21:17;6.77;;;3.93;;
3249;SDS011;1637;42.020;23.992;2023-09-18T13:23:44;6.77;;;3.60;;
3249;SDS011;1637;42.020;23.992;2023-09-18T13:26:11;10.50;;;4.70;;
3249;SDS011;1637;42.020;23.992;2023-09-18T13:28:38;6.10;;;3.73;;
3249;SDS011;1637;42.020;23.992;2023-09-18T13:31:07;82.27;;;38.83;;
3249;SDS011;1637;42.020;23.992;2023-09-18T13:33:37;54.10;;;22.57;;
3249;SDS011;1637;42.020;23.992;2023-09-18T13:36:05;17.93;;;8.73;;
3249;SDS011;1637;42.020;23.992;2023-09-18T13:38:32;15.07;;;5.20;;
3249;SDS011;1637;42.020;23.992;2023-09-18T13:40:59;116.70;;;39.27;;
3249;SDS011;1637;42.020;23.992;2023-09-18T13:43:26;24.00;;;11.70;;
3249;SDS011;1637;42.020;23.992;2023-09-18T13:45:55;8.90;;;4.60;;
3249;SDS011;1637;42.020;23.992;2023-09-18T13:48:25;6.60;;;2.90;;
3249;SDS011;1637;42.020;23.992;2023-09-18T13:50:53;3.87;;;3.57;;
3249;SDS011;1637;42.020;23.992;2023-09-18T13:53:20;4.47;;;3.77;;
3249;SDS011;1637;42.020;23.992;2023-09-18T13:55:47;6.87;;;3.97;;
3249;SDS011;1637;42.020;23.992;2023-09-18T13:58:14;3.80;;;3.00;;
3249;SDS011;1637;42.020;23.992;2023-09-18T14:00:41;6.30;;;3.30;;
3249;SDS011;1637;42.020;23.992;2023-09-18T14:03:08;7.53;;;3.40;;
3249;SDS011;1637;42.020;23.992;2023-09-18T14:05:37;12.70;;;3.33;;
3249;SDS011;1637;42.020;23.992;2023-09-18T14:08:04;4.73;;;3.60;;
3249;SDS011;1637;42.020;23.992;2023-09-18T14:10:31;6.90;;;3.90;;
3249;SDS011;1637;42.020;23.992;2023-09-18T14:12:58;6.70;;;4.80;;
3249;SDS011;1637;42.020;23.992;2023-09-18T14:15:24;3.50;;;2.83;;
3249;SDS011;1637;42.020;23.992;2023-09-18T14:17:51;5.57;;;3.20;;
3249;SDS011;1637;42.020;23.992;2023-09-18T14:20:19;8.60;;;3.50;;
3249;SDS011;1637;42.020;23.992;2023-09-18T14:22:48;3.90;;;2.30;;
3249;SDS011;1637;42.020;23.992;2023-09-18T14:25:15;3.73;;;2.97;;
3249;SDS011;1637;42.020;23.992;2023-09-18T14:27:42;3.73;;;2.37;;
3249;SDS011;1637;42.020;23.992;2023-09-18T14:30:10;4.40;;;2.67;;
3249;SDS011;1637;42.020;23.992;2023-09-18T14:32:38;3.00;;;2.40;;
3249;SDS011;1637;42.020;23.992;2023-09-18T14:35:06;4.93;;;2.83;;
3249;SDS011;1637;42.020;23.992;2023-09-18T14:37:34;6.90;;;4.60;;
3249;SDS011;1637;42.020;23.992;2023-09-18T14:40:02;3.50;;;2.37;;
3249;SDS011;1637;42.020;23.992;2023-09-18T14:42:30;8.80;;;2.40;;
3249;SDS011;1637;42.020;23.992;2023-09-18T14:44:58;5.30;;;2.87;;
3249;SDS011;1637;42.020;23.992;2023-09-18T14:47:26;3.27;;;2.40;;
3249;SDS011;1637;42.020;23.992;2023-09-18T14:49:53;2.90;;;1.90;;
3249;SDS011;1637;42.020;23.992;2023-09-18T14:52:19;3.30;;;2.37;;
3249;SDS011;1637;42.020;23.992;2023-09-18T14:54:48;4.63;;;1.77;;
3249;SDS011;1637;42.020;23.992;2023-09-18T14:57:16;3.60;;;2.70;;